Time;durP1;ratioP1;P1;durP2;ratioP2;P2;SDS_P1;SDS_P2;PMS_P1;PMS_P2;Temp;Humidity;BMP_temperature;BMP_pressure;BME280_temperature;BME280_humidity;BME280_pressure;Samples;Min_cycle;Max_cycle;Signal;HPM_P1;HPM_P2
2022/01/12 00:01:41;;;;;;;79.37;36.17;;;6.50;99.90;;;;;;6178771;23;20625;-81
2022/01/12 00:04:09;;;;;;;70.43;32.30;;;6.50;99.90;;;;;;6179568;23;20563;-84
2022/01/12 00:06:35;;;;;;;79.50;34.10;;;6.50;99.90;;;;;;6178328;23;20174;-83
2022/01/12 00:09:06;;;;;;;78.37;31.60;;;6.50;99.90;;;;;;6176889;23;20204;-82
2022/01/12 00:11:35;;;;;;;68.83;31.83;;;6.50;99.90;;;;;;6176814;23;20171;-80
2022/01/12 00:14:02;;;;;;;74.77;33.37;;;6.60;99.90;;;;;;6176964;23;20638;-82
2022/01/12 00:16:28;;;;;;;75.80;31.20;;;6.50;99.90;;;;;;6177055;23;20182;-80
2022/01/12 00:18:55;;;;;;;77.70;32.10;;;6.50;99.90;;;;;;6177362;23;20178;-81
2022/01/12 00:21:22;;;;;;;66.53;28.60;;;6.50;99.90;;;;;;6177752;23;20186;-81
2022/01/12 00:23:49;;;;;;;76.03;31.57;;;6.50;99.90;;;;;;6177552;23;20298;-80
2022/01/12 00:26:37;;;;;;;66.93;29.47;;;6.60;99.90;;;;;;6177659;23;20175;-80
2022/01/12 00:34:34;;;;;;;75.80;30.70;;;6.60;99.90;;;;;;6177251;23;20197;-80
2022/01/12 00:37:01;;;;;;;75.93;31.27;;;6.60;99.90;;;;;;6176238;23;20630;-81
2022/01/12 00:39:28;;;;;;;80.57;33.07;;;6.60;99.90;;;;;;6176381;23;20522;-80
2022/01/12 00:41:54;;;;;;;76.10;31.47;;;6.70;99.90;;;;;;6176081;23;20181;-82
2022/01/12 00:44:23;;;;;;;70.97;31.03;;;6.70;99.90;;;;;;6176263;23;20552;-83
2022/01/12 00:46:51;;;;;;;67.30;29.73;;;6.70;99.90;;;;;;6178566;23;20501;-81
2022/01/12 00:49:18;;;;;;;75.23;32.13;;;6.70;99.90;;;;;;6178648;23;20187;-81
2022/01/12 00:51:47;;;;;;;69.13;29.40;;;6.80;99.90;;;;;;6177882;23;20175;-81
2022/01/12 00:54:14;;;;;;;64.10;28.17;;;6.70;99.90;;;;;;6178397;23;20239;-80
2022/01/12 00:56:41;;;;;;;69.00;28.83;;;6.70;99.90;;;;;;6178333;23;20475;-81
2022/01/12 00:59:08;;;;;;;66.87;29.07;;;6.70;99.90;;;;;;6177879;23;20246;-81
2022/01/12 01:01:36;;;;;;;58.93;27.43;;;6.80;99.90;;;;;;6177782;23;20858;-80
2022/01/12 01:04:03;;;;;;;73.10;30.60;;;6.80;99.90;;;;;;6178864;23;20171;-82
2022/01/12 01:06:31;;;;;;;72.60;30.83;;;6.80;99.90;;;;;;6177689;23;20182;-81
2022/01/12 01:08:58;;;;;;;61.50;26.30;;;6.70;99.90;;;;;;6177950;23;20194;-84
2022/01/12 01:11:25;;;;;;;59.17;27.47;;;6.70;99.90;;;;;;6177841;23;20194;-82
2022/01/12 01:13:58;;;;;;;69.20;29.70;;;6.70;99.90;;;;;;6177640;23;20195;-81
2022/01/12 01:16:29;;;;;;;56.67;26.13;;;6.70;99.90;;;;;;6178527;23;20249;-81
2022/01/12 01:27:11;;;;;;;72.00;31.47;;;6.70;99.90;;;;;;6180640;23;20170;-81
2022/01/12 01:29:38;;;;;;;77.37;33.83;;;6.80;99.90;;;;;;6179083;23;20174;-82
2022/01/12 01:32:07;;;;;;;82.23;35.23;;;6.80;99.90;;;;;;6180742;23;20189;-83
2022/01/12 01:34:42;;;;;;;75.77;33.50;;;6.80;99.90;;;;;;6178774;23;20198;-83
2022/01/12 01:37:09;;;;;;;72.73;33.87;;;6.80;99.90;;;;;;6179616;23;20209;-82
2022/01/12 01:39:36;;;;;;;84.37;35.10;;;6.80;99.90;;;;;;6179392;23;20167;-82
2022/01/12 01:42:12;;;;;;;76.73;33.73;;;6.90;99.90;;;;;;6180526;23;20175;-82
2022/01/12 01:55:41;;;;;;;68.67;30.30;;;7.20;99.90;;;;;;6178457;23;20659;-80
2022/01/12 01:58:08;;;;;;;81.20;33.23;;;7.30;99.90;;;;;;6180481;23;20206;-82
2022/01/12 02:00:35;;;;;;;63.50;28.70;;;7.30;99.90;;;;;;6180376;23;20174;-80
2022/01/12 02:03:02;;;;;;;85.70;34.37;;;7.30;99.90;;;;;;6179806;23;20181;-83
2022/01/12 02:05:31;;;;;;;64.27;28.40;;;7.30;99.90;;;;;;6178740;23;20171;-80
2022/01/12 02:07:58;;;;;;;66.83;28.60;;;7.30;99.90;;;;;;6179789;23;20544;-81
2022/01/12 02:10:25;;;;;;;65.90;26.73;;;7.30;99.90;;;;;;6180240;23;20175;-80
2022/01/12 02:12:52;;;;;;;54.07;25.57;;;7.30;99.90;;;;;;6179641;23;20174;-82
2022/01/12 02:15:23;;;;;;;59.50;25.57;;;7.30;99.90;;;;;;6176728;23;20202;-82
2022/01/12 02:40:25;;;;;;;44.80;15.47;;;7.40;99.90;;;;;;6178663;23;20194;-80
2022/01/12 02:43:05;;;;;;;36.93;13.10;;;7.40;99.90;;;;;;6179454;23;20178;-81
2022/01/12 02:51:11;;;;;;;41.60;10.97;;;7.30;99.90;;;;;;6177690;23;20256;-81
2022/01/12 02:53:39;;;;;;;48.13;11.07;;;7.20;99.90;;;;;;6179367;23;20177;-81
2022/01/12 02:56:08;;;;;;;29.00;10.10;;;7.20;99.90;;;;;;6179840;23;20189;-82
2022/01/12 02:58:35;;;;;;;22.77;9.80;;;7.20;99.90;;;;;;6177439;23;20227;-81
2022/01/12 03:03:48;;;;;;;46.67;10.93;;;7.10;99.90;;;;;;6133139;23;20167;-82
2022/01/12 03:06:18;;;;;;;35.20;10.40;;;7.00;99.90;;;;;;6178795;23;20186;-81
2022/01/12 03:08:45;;;;;;;32.53;9.70;;;7.10;99.90;;;;;;6178781;23;20175;-82
2022/01/12 03:11:15;;;;;;;30.50;8.33;;;7.00;99.90;;;;;;6178851;23;20171;-81
2022/01/12 03:13:42;;;;;;;34.30;7.87;;;7.00;99.90;;;;;;6178669;23;20178;-82
2022/01/12 03:16:14;;;;;;;25.17;7.43;;;6.90;99.90;;;;;;6178876;23;20171;-81
2022/01/12 03:18:42;;;;;;;28.47;8.00;;;7.00;99.90;;;;;;6177764;23;20261;-81
2022/01/12 03:21:09;;;;;;;30.97;6.67;;;7.00;99.90;;;;;;6178581;23;20195;-82
2022/01/12 03:23:36;;;;;;;21.93;6.67;;;6.80;99.90;;;;;;6178978;23;20182;-81
2022/01/12 03:26:03;;;;;;;29.53;6.57;;;6.80;99.90;;;;;;6178482;23;20601;-82
2022/01/12 03:28:32;;;;;;;18.30;6.10;;;6.70;99.90;;;;;;6179297;23;20186;-82
2022/01/12 03:31:07;;;;;;;25.77;6.27;;;6.60;99.90;;;;;;6177879;23;20175;-82
2022/01/12 03:33:51;;;;;;;19.53;6.20;;;6.50;99.90;;;;;;6177870;23;20166;-82
2022/01/12 03:36:41;;;;;;;20.47;5.90;;;6.50;99.90;;;;;;6178346;23;20201;-80
2022/01/12 03:39:10;;;;;;;18.17;4.73;;;6.30;99.90;;;;;;6178569;23;20171;-82
2022/01/12 03:41:38;;;;;;;11.70;4.53;;;6.30;99.90;;;;;;6177528;23;20214;-80
2022/01/12 03:44:09;;;;;;;10.37;4.33;;;6.20;99.90;;;;;;6178849;23;20591;-82
2022/01/12 03:46:40;;;;;;;13.67;5.00;;;6.10;99.90;;;;;;6176569;23;20182;-81
2022/01/12 03:49:07;;;;;;;13.67;5.13;;;6.00;99.90;;;;;;6176714;23;20163;-82
2022/01/12 03:51:34;;;;;;;11.77;4.10;;;5.90;99.90;;;;;;6179170;23;20835;-83
2022/01/12 03:54:01;;;;;;;10.53;3.70;;;5.80;99.90;;;;;;6178476;23;20210;-81
2022/01/12 03:56:28;;;;;;;10.57;4.07;;;5.70;99.90;;;;;;6179189;23;20226;-82
2022/01/12 03:58:55;;;;;;;9.27;3.10;;;5.70;99.90;;;;;;6178006;23;20572;-82
2022/01/12 04:01:23;;;;;;;10.57;3.77;;;5.60;99.90;;;;;;6178709;23;20190;-82
2022/01/12 04:03:59;;;;;;;6.13;2.80;;;5.50;99.90;;;;;;6178389;23;21019;-80
2022/01/12 04:09:11;;;;;;;11.20;3.67;;;5.30;99.90;;;;;;6179463;23;20185;-82
2022/01/12 04:11:38;;;;;;;6.13;3.20;;;5.20;99.90;;;;;;6178418;23;20846;-81
2022/01/12 04:14:05;;;;;;;8.63;3.27;;;5.20;99.90;;;;;;6179631;23;20201;-81
2022/01/12 04:16:34;;;;;;;11.40;4.13;;;5.10;99.90;;;;;;6178816;23;20920;-82
2022/01/12 04:19:01;;;;;;;11.30;3.73;;;5.10;99.90;;;;;;6178815;23;20171;-80
2022/01/12 04:21:30;;;;;;;7.90;3.40;;;5.00;99.90;;;;;;6178859;23;20178;-81
2022/01/12 04:23:57;;;;;;;9.97;3.57;;;5.00;99.90;;;;;;6178303;23;20282;-81
2022/01/12 04:26:26;;;;;;;7.90;3.43;;;4.90;99.90;;;;;;6179245;23;20182;-81
2022/01/12 04:28:53;;;;;;;7.07;2.70;;;4.90;99.90;;;;;;6178354;23;20562;-83
2022/01/12 04:31:20;;;;;;;7.87;3.27;;;4.80;99.90;;;;;;6178501;23;20182;-80
2022/01/12 04:33:49;;;;;;;6.60;2.63;;;4.80;99.90;;;;;;6178716;23;20178;-81
2022/01/12 04:36:16;;;;;;;5.17;2.87;;;4.70;99.90;;;;;;6178192;23;20621;-81
2022/01/12 04:38:45;;;;;;;7.70;2.97;;;4.70;99.90;;;;;;6178430;23;20181;-81
2022/01/12 04:41:12;;;;;;;5.87;2.90;;;4.60;99.90;;;;;;6177961;23;20415;-80
2022/01/12 04:43:41;;;;;;;5.03;2.50;;;4.50;99.90;;;;;;6176547;23;20185;-81
2022/01/12 04:46:23;;;;;;;5.93;3.47;;;4.40;99.90;;;;;;6176783;23;20250;-81
2022/01/12 04:48:56;;;;;;;5.73;2.87;;;4.40;99.90;;;;;;6178148;23;20428;-80
2022/01/12 04:51:25;;;;;;;5.57;2.80;;;4.30;99.90;;;;;;6176620;23;20166;-80
2022/01/12 04:53:53;;;;;;;6.67;2.90;;;4.30;99.90;;;;;;6177539;23;20479;-78
2022/01/12 04:56:20;;;;;;;5.73;3.07;;;4.30;99.90;;;;;;6177233;23;20225;-80
2022/01/12 04:58:46;;;;;;;10.93;3.30;;;4.20;99.90;;;;;;6177501;23;20166;-80
2022/01/12 05:01:22;;;;;;;5.33;3.17;;;4.20;99.90;;;;;;6177924;23;20170;-80
2022/01/12 05:06:53;;;;;;;4.60;3.00;;;4.10;99.90;;;;;;6177900;23;20264;-81
2022/01/12 05:15:01;;;;;;;4.77;2.67;;;3.90;99.90;;;;;;6177114;23;20193;-79
2022/01/12 05:17:29;;;;;;;4.60;2.97;;;3.80;99.90;;;;;;6177032;23;20532;-81
2022/01/12 05:19:57;;;;;;;5.83;3.23;;;3.80;99.90;;;;;;6176010;23;20179;-79
2022/01/12 05:22:24;;;;;;;6.83;2.93;;;3.70;99.90;;;;;;6177241;23;20166;-82
2022/01/12 05:24:51;;;;;;;7.83;3.10;;;3.70;99.90;;;;;;6177067;23;20175;-81
2022/01/12 05:27:17;;;;;;;4.03;3.10;;;3.70;99.90;;;;;;6177974;23;20174;-81
2022/01/12 05:29:44;;;;;;;5.60;3.03;;;3.60;99.90;;;;;;6177199;23;20166;-81
2022/01/12 05:32:11;;;;;;;6.20;2.87;;;3.60;99.90;;;;;;6177017;23;20178;-81
2022/01/12 05:34:39;;;;;;;5.90;2.83;;;3.60;99.90;;;;;;6177001;23;20194;-80
2022/01/12 05:37:07;;;;;;;3.40;2.20;;;3.60;99.90;;;;;;6177557;23;20245;-80
2022/01/12 05:39:34;;;;;;;4.00;2.20;;;3.50;99.90;;;;;;6177720;23;20174;-81
2022/01/12 05:42:00;;;;;;;8.17;3.87;;;3.50;99.90;;;;;;6178197;23;20167;-81
2022/01/12 05:44:27;;;;;;;6.67;3.60;;;3.50;99.90;;;;;;6177569;23;20452;-81
2022/01/12 05:46:55;;;;;;;7.97;3.70;;;3.50;99.90;;;;;;6176945;23;20464;-82
2022/01/12 05:49:36;;;;;;;5.57;2.90;;;3.50;99.90;;;;;;6177145;23;20194;-81
2022/01/12 05:52:04;;;;;;;8.47;3.43;;;3.50;99.90;;;;;;6177724;23;20218;-81
2022/01/12 05:54:32;;;;;;;7.03;3.57;;;3.40;99.90;;;;;;6176039;23;20174;-80
2022/01/12 05:57:00;;;;;;;8.30;3.90;;;3.40;99.90;;;;;;6176791;23;20296;-80
2022/01/12 05:59:27;;;;;;;8.77;4.10;;;3.40;99.90;;;;;;6177414;23;20642;-81
2022/01/12 06:01:54;;;;;;;7.80;3.50;;;3.30;99.90;;;;;;6176575;23;20179;-81
2022/01/12 06:04:20;;;;;;;9.93;4.00;;;3.30;99.90;;;;;;6178055;23;20182;-79
2022/01/12 06:06:47;;;;;;;7.87;3.43;;;3.30;99.90;;;;;;6177717;23;20177;-80
2022/01/12 06:09:14;;;;;;;9.33;3.93;;;3.30;99.90;;;;;;6177773;23;20171;-81
2022/01/12 06:11:42;;;;;;;8.37;4.17;;;3.20;99.90;;;;;;6179082;23;20182;-82
2022/01/12 06:14:10;;;;;;;4.40;3.17;;;3.20;99.90;;;;;;6179177;23;20167;-80
2022/01/12 06:16:37;;;;;;;5.50;3.40;;;3.20;99.90;;;;;;6179100;23;20198;-80
2022/01/12 06:19:03;;;;;;;8.00;3.47;;;3.10;99.90;;;;;;6179364;23;20181;-80
2022/01/12 06:21:30;;;;;;;9.70;4.57;;;3.10;99.90;;;;;;6178051;23;20175;-81
2022/01/12 06:23:57;;;;;;;7.57;4.17;;;3.10;99.90;;;;;;6178858;23;20555;-81
2022/01/12 06:26:26;;;;;;;13.97;5.00;;;3.10;99.90;;;;;;6178653;23;20178;-79
2022/01/12 06:29:22;;;;;;;7.83;4.17;;;3.10;99.90;;;;;;6178446;23;20249;-80
2022/01/12 06:31:52;;;;;;;16.97;5.77;;;3.10;99.90;;;;;;6178379;23;20171;-80
2022/01/12 06:34:19;;;;;;;11.27;5.30;;;3.20;99.90;;;;;;6179356;23;20178;-79
2022/01/12 06:36:46;;;;;;;13.47;7.17;;;3.30;99.90;;;;;;6179560;23;20203;-80
2022/01/12 06:39:14;;;;;;;8.00;4.87;;;3.30;99.90;;;;;;6181773;23;20470;-81
2022/01/12 06:41:42;;;;;;;13.27;4.90;;;3.30;99.90;;;;;;6180161;23;20650;-83
2022/01/12 06:44:15;;;;;;;15.40;5.67;;;3.30;99.90;;;;;;6181387;23;20175;-82
2022/01/12 06:46:43;;;;;;;10.93;5.47;;;3.30;99.90;;;;;;6181090;23;20174;-83
2022/01/12 06:49:11;;;;;;;10.97;5.87;;;3.40;99.90;;;;;;6180403;23;20178;-83
2022/01/12 06:51:37;;;;;;;14.33;6.47;;;3.40;99.90;;;;;;6181623;23;20484;-83
2022/01/12 06:54:04;;;;;;;9.30;5.83;;;3.40;99.90;;;;;;6178084;23;20869;-83
2022/01/12 06:56:31;;;;;;;13.33;5.77;;;3.40;99.90;;;;;;6181289;23;20198;-82
2022/01/12 06:58:58;;;;;;;8.40;4.70;;;3.40;99.90;;;;;;6182236;23;20493;-84
2022/01/12 07:01:26;;;;;;;8.40;5.17;;;3.40;99.90;;;;;;6180111;23;20644;-84
2022/01/12 07:03:53;;;;;;;6.27;4.50;;;3.40;99.90;;;;;;6180047;23;20687;-84
2022/01/12 07:06:20;;;;;;;7.47;4.33;;;3.30;99.90;;;;;;6182320;23;20174;-85
2022/01/12 07:08:47;;;;;;;4.67;3.60;;;3.30;99.90;;;;;;6182176;23;20175;-85
2022/01/12 07:11:14;;;;;;;6.97;4.13;;;3.30;99.90;;;;;;6180070;23;20238;-85
2022/01/12 07:13:40;;;;;;;10.10;4.93;;;3.30;99.90;;;;;;6181304;23;20181;-85
2022/01/12 07:16:08;;;;;;;7.60;4.87;;;3.30;99.90;;;;;;6180040;23;20190;-83
2022/01/12 07:18:36;;;;;;;10.73;4.57;;;3.30;99.90;;;;;;6181296;23;20181;-82
2022/01/12 07:21:03;;;;;;;6.87;4.13;;;3.30;99.90;;;;;;6180986;23;20241;-81
2022/01/12 07:23:30;;;;;;;10.40;4.63;;;3.20;99.90;;;;;;6180813;23;20235;-82
2022/01/12 07:25:57;;;;;;;11.43;5.30;;;3.20;99.90;;;;;;6180300;23;20205;-83
2022/01/12 07:28:23;;;;;;;9.33;4.40;;;3.20;99.90;;;;;;6181830;23;20197;-86
2022/01/12 07:30:51;;;;;;;13.63;6.13;;;3.20;99.90;;;;;;6181571;23;20174;-82
2022/01/12 07:33:18;;;;;;;10.03;4.90;;;3.30;99.90;;;;;;6180600;23;20587;-84
2022/01/12 07:35:46;;;;;;;8.37;4.97;;;3.20;99.90;;;;;;6180063;23;20508;-82
2022/01/12 07:38:13;;;;;;;11.80;5.70;;;3.20;99.90;;;;;;6179010;23;20173;-83
2022/01/12 07:40:40;;;;;;;13.07;5.93;;;3.20;99.90;;;;;;6179888;23;20183;-81
2022/01/12 07:43:07;;;;;;;10.37;6.07;;;3.20;99.90;;;;;;6180068;23;20193;-81
2022/01/12 07:45:35;;;;;;;11.93;6.40;;;3.10;99.90;;;;;;6179914;23;20234;-83
2022/01/12 07:48:02;;;;;;;12.13;6.60;;;3.10;99.90;;;;;;6180837;23;20872;-83
2022/01/12 07:50:29;;;;;;;8.50;5.93;;;3.10;99.90;;;;;;6180776;23;20198;-82
2022/01/12 07:52:57;;;;;;;16.20;7.97;;;3.10;99.90;;;;;;6178992;23;20284;-82
2022/01/12 07:55:25;;;;;;;10.43;7.27;;;3.10;99.90;;;;;;6177927;23;20205;-81
2022/01/12 07:57:52;;;;;;;10.20;6.70;;;3.00;99.90;;;;;;6179455;23;20578;-82
2022/01/12 08:00:21;;;;;;;12.20;7.37;;;3.00;99.90;;;;;;6177988;23;20178;-82
2022/01/12 08:02:49;;;;;;;16.60;7.23;;;3.00;99.90;;;;;;6178970;23;20201;-83
2022/01/12 08:05:17;;;;;;;12.80;6.77;;;3.00;99.90;;;;;;6177814;23;20170;-82
2022/01/12 08:07:44;;;;;;;13.93;7.77;;;2.90;99.90;;;;;;6178057;23;20190;-81
2022/01/12 08:10:13;;;;;;;11.53;6.63;;;2.90;99.90;;;;;;6177375;23;20568;-82
2022/01/12 08:12:43;;;;;;;8.80;6.67;;;2.90;99.90;;;;;;6176798;23;20177;-82
2022/01/12 08:15:10;;;;;;;12.13;7.47;;;2.90;99.90;;;;;;6177374;23;20178;-82
2022/01/12 08:17:37;;;;;;;9.37;7.23;;;2.90;99.90;;;;;;6178763;23;20183;-80
2022/01/12 08:20:06;;;;;;;13.97;7.60;;;2.90;99.90;;;;;;6177620;23;20171;-83
2022/01/12 08:22:33;;;;;;;14.97;7.83;;;2.80;99.90;;;;;;6177273;23;20170;-83
2022/01/12 08:25:02;;;;;;;14.67;8.10;;;2.80;99.90;;;;;;6175799;23;20179;-81
2022/01/12 08:27:30;;;;;;;16.30;9.70;;;2.80;99.90;;;;;;6175610;23;20439;-84
2022/01/12 08:30:00;;;;;;;14.83;8.73;;;2.80;99.90;;;;;;6178286;23;20174;-81
2022/01/12 08:32:28;;;;;;;17.43;8.60;;;2.80;99.90;;;;;;6177352;23;20257;-81
2022/01/12 08:34:55;;;;;;;16.00;7.90;;;2.80;99.90;;;;;;6178189;23;20163;-81
2022/01/12 08:37:22;;;;;;;15.43;8.63;;;2.80;99.90;;;;;;6179258;23;20210;-83
2022/01/12 08:39:52;;;;;;;14.63;7.63;;;2.80;99.90;;;;;;6157206;23;20238;-84
2022/01/12 08:42:20;;;;;;;20.30;8.67;;;2.80;99.90;;;;;;6181173;23;20163;-81
2022/01/12 08:44:48;;;;;;;16.90;9.13;;;2.80;99.90;;;;;;6180659;23;20485;-83
2022/01/12 08:47:15;;;;;;;16.00;8.63;;;2.90;99.90;;;;;;6180984;23;20171;-82
2022/01/12 08:49:42;;;;;;;16.67;9.53;;;2.90;99.90;;;;;;6179942;23;20195;-82
2022/01/12 08:52:09;;;;;;;19.20;8.90;;;2.90;99.90;;;;;;6180696;23;20190;-85
2022/01/12 08:54:38;;;;;;;17.33;9.20;;;2.90;99.90;;;;;;6174752;23;20209;-84
2022/01/12 08:57:05;;;;;;;17.00;8.80;;;2.90;99.90;;;;;;6179051;23;20202;-84
2022/01/12 08:59:32;;;;;;;18.33;9.53;;;2.80;99.90;;;;;;6180326;23;20166;-84
2022/01/12 09:02:00;;;;;;;13.33;8.60;;;2.90;99.90;;;;;;6179864;23;20179;-85
2022/01/12 09:04:27;;;;;;;16.77;9.13;;;2.90;99.90;;;;;;6177934;23;20167;-81
2022/01/12 09:06:54;;;;;;;17.53;9.27;;;2.90;99.90;;;;;;6179904;23;20475;-84
2022/01/12 09:09:22;;;;;;;16.47;9.13;;;2.90;99.90;;;;;;6179576;23;20208;-84
2022/01/12 09:11:48;;;;;;;16.20;9.10;;;2.90;99.90;;;;;;6179284;23;20170;-82
2022/01/12 09:14:16;;;;;;;18.70;8.50;;;2.90;99.90;;;;;;6179883;23;20182;-82
2022/01/12 09:16:43;;;;;;;17.47;9.53;;;3.00;99.90;;;;;;6179579;23;20198;-84
2022/01/12 09:19:13;;;;;;;18.73;10.20;;;3.00;99.90;;;;;;6180048;23;20177;-84
2022/01/12 09:21:40;;;;;;;17.73;10.17;;;3.10;99.90;;;;;;6179026;23;20524;-84
2022/01/12 09:24:07;;;;;;;23.03;11.63;;;3.10;99.90;;;;;;6177965;23;20174;-84
2022/01/12 09:26:34;;;;;;;18.87;9.93;;;3.10;99.90;;;;;;6180536;23;20171;-83
2022/01/12 09:29:02;;;;;;;27.90;10.90;;;3.20;99.90;;;;;;6179691;23;20182;-86
2022/01/12 09:31:29;;;;;;;23.67;11.37;;;3.20;99.90;;;;;;6179016;23;20559;-83
2022/01/12 09:33:56;;;;;;;24.03;10.80;;;3.30;99.90;;;;;;6180001;23;20178;-84
2022/01/12 09:36:24;;;;;;;22.57;10.53;;;3.40;99.90;;;;;;6179507;23;20495;-83
2022/01/12 09:38:51;;;;;;;23.00;10.93;;;3.40;99.90;;;;;;6180217;23;20174;-83
2022/01/12 09:41:18;;;;;;;28.60;11.23;;;3.50;99.90;;;;;;6180511;23;20182;-84
2022/01/12 09:43:46;;;;;;;21.70;9.20;;;3.60;99.90;;;;;;6180501;23;20167;-84
2022/01/12 09:46:13;;;;;;;30.50;11.43;;;3.70;99.90;;;;;;6181160;23;20437;-90
2022/01/12 09:48:41;;;;;;;23.43;10.23;;;3.80;99.90;;;;;;6179576;23;20614;-84
2022/01/12 09:51:08;;;;;;;25.33;10.97;;;3.80;99.90;;;;;;6180890;23;20191;-84
2022/01/12 09:53:39;;;;;;;23.10;10.37;;;3.90;99.90;;;;;;6179868;23;20179;-83
2022/01/12 09:56:12;;;;;;;26.50;11.43;;;3.90;99.90;;;;;;6179491;23;20222;-82
2022/01/12 09:58:39;;;;;;;24.33;10.03;;;4.00;99.90;;;;;;6178384;23;20263;-83
2022/01/12 10:01:06;;;;;;;23.20;10.17;;;4.10;99.90;;;;;;6177951;23;20179;-83
2022/01/12 10:03:33;;;;;;;22.33;9.63;;;4.10;99.90;;;;;;6179361;23;20167;-85
2022/01/12 10:06:11;;;;;;;24.80;12.27;;;4.20;99.90;;;;;;6182015;23;20170;-85
2022/01/12 10:08:39;;;;;;;23.43;10.07;;;4.20;99.90;;;;;;6181517;23;20171;-82
2022/01/12 10:11:09;;;;;;;32.70;10.57;;;4.30;99.90;;;;;;6182347;23;20213;-82
2022/01/12 10:13:37;;;;;;;19.50;9.50;;;4.40;99.90;;;;;;6181122;23;20544;-82
2022/01/12 10:16:12;;;;;;;29.03;10.57;;;4.40;99.90;;;;;;6182167;23;20517;-83
2022/01/12 10:18:47;;;;;;;26.77;10.17;;;4.50;99.90;;;;;;6181523;23;20182;-85
2022/01/12 10:21:29;;;;;;;32.63;10.17;;;4.50;99.90;;;;;;6181942;23;20574;-85
2022/01/12 10:24:04;;;;;;;24.37;9.87;;;4.60;99.90;;;;;;6181804;23;20230;-86
2022/01/12 10:26:34;;;;;;;24.13;10.00;;;4.70;99.90;;;;;;6180845;23;20261;-84
2022/01/12 10:29:06;;;;;;;26.40;8.60;;;4.70;99.90;;;;;;6180917;23;20473;-84
2022/01/12 10:31:47;;;;;;;23.37;8.30;;;4.80;99.90;;;;;;6181747;23;20437;-83
2022/01/12 10:34:15;;;;;;;28.43;7.97;;;4.90;99.90;;;;;;6180803;23;20599;-82
2022/01/12 10:36:44;;;;;;;32.43;7.33;;;5.00;99.90;;;;;;6180667;23;20275;-80
2022/01/12 10:39:14;;;;;;;23.30;5.20;;;5.10;99.90;;;;;;6180657;23;20174;-80
2022/01/12 10:41:56;;;;;;;26.57;4.83;;;5.30;99.90;;;;;;6181184;23;20167;-82
2022/01/12 10:44:23;;;;;;;21.20;4.27;;;5.40;99.90;;;;;;6180679;23;20186;-82
2022/01/12 10:46:51;;;;;;;22.97;4.70;;;5.50;99.90;;;;;;6180312;23;20175;-81
2022/01/12 10:49:21;;;;;;;30.43;6.47;;;5.60;99.90;;;;;;6179794;23;20866;-81
2022/01/12 10:51:56;;;;;;;24.40;4.70;;;5.70;99.90;;;;;;6180251;23;20544;-82
2022/01/12 10:54:24;;;;;;;25.07;3.90;;;5.80;99.90;;;;;;6180079;23;20698;-82
2022/01/12 10:56:51;;;;;;;17.10;3.70;;;5.80;99.90;;;;;;6178789;23;20488;-82
2022/01/12 10:59:19;;;;;;;31.33;4.13;;;5.90;99.90;;;;;;6180764;23;20182;-83
2022/01/12 11:01:46;;;;;;;26.47;3.53;;;6.00;99.90;;;;;;6180635;23;20174;-84
2022/01/12 11:04:13;;;;;;;29.33;4.20;;;6.10;99.90;;;;;;6179623;23;20182;-85
2022/01/12 11:06:40;;;;;;;21.93;5.13;;;6.20;99.90;;;;;;6179843;23;20520;-85
2022/01/12 11:09:07;;;;;;;22.47;3.60;;;6.30;99.90;;;;;;6178526;23;20170;-80
2022/01/12 11:11:35;;;;;;;15.60;3.90;;;6.30;99.90;;;;;;6178557;23;20182;-82
2022/01/12 11:14:03;;;;;;;23.00;3.83;;;6.30;99.90;;;;;;6177975;23;20265;-81
2022/01/12 11:16:30;;;;;;;17.07;3.10;;;6.40;99.90;;;;;;6174813;23;20195;-80
2022/01/12 11:18:59;;;;;;;23.63;4.87;;;6.40;99.90;;;;;;6176815;23;20170;-82
2022/01/12 11:21:33;;;;;;;21.33;6.40;;;6.50;99.90;;;;;;6177991;23;20531;-82
2022/01/12 11:24:02;;;;;;;30.33;5.47;;;6.60;99.90;;;;;;6177540;23;20499;-82
2022/01/12 11:26:30;;;;;;;21.53;6.10;;;6.60;99.90;;;;;;6176765;23;20206;-82
2022/01/12 11:28:59;;;;;;;22.57;4.63;;;6.70;99.90;;;;;;6176775;23;20174;-83
2022/01/12 11:31:29;;;;;;;21.83;4.57;;;6.80;99.90;;;;;;6175692;23;20599;-81
2022/01/12 11:33:56;;;;;;;21.60;5.30;;;6.90;99.90;;;;;;6177820;23;20213;-82
2022/01/12 11:36:25;;;;;;;20.00;4.60;;;6.90;99.90;;;;;;6178973;23;20591;-82
2022/01/12 11:39:00;;;;;;;20.17;3.67;;;7.00;99.90;;;;;;6179210;23;20175;-82
2022/01/12 11:41:29;;;;;;;20.57;3.83;;;7.00;99.90;;;;;;6179526;23;20525;-82
2022/01/12 11:44:05;;;;;;;17.70;3.87;;;7.00;99.90;;;;;;6180040;23;20179;-83
2022/01/12 11:46:43;;;;;;;22.97;3.70;;;7.10;99.90;;;;;;6179947;23;20173;-82
2022/01/12 11:49:10;;;;;;;25.53;4.57;;;7.10;99.90;;;;;;6179609;23;20162;-84
2022/01/12 11:51:39;;;;;;;25.10;4.47;;;7.10;99.90;;;;;;6179157;23;20166;-83
2022/01/12 11:54:11;;;;;;;23.50;4.77;;;7.20;99.90;;;;;;6179618;23;20179;-83
2022/01/12 11:56:39;;;;;;;23.53;3.90;;;7.30;99.90;;;;;;6180101;23;20205;-81
2022/01/12 11:59:12;;;;;;;15.77;3.10;;;7.30;99.90;;;;;;6179302;23;20175;-80
2022/01/12 12:01:44;;;;;;;20.70;3.73;;;7.30;99.90;;;;;;6177929;23;20206;-82
2022/01/12 12:04:21;;;;;;;25.03;5.57;;;7.40;99.90;;;;;;6180248;23;20194;-86
2022/01/12 12:06:49;;;;;;;19.43;4.40;;;7.30;99.90;;;;;;6177446;23;20167;-82
2022/01/12 12:09:18;;;;;;;19.40;4.20;;;7.40;99.90;;;;;;6178617;23;20178;-83
2022/01/12 12:11:51;;;;;;;28.20;4.63;;;7.40;99.90;;;;;;6177786;23;20847;-83
2022/01/12 12:14:20;;;;;;;18.90;4.83;;;7.40;99.90;;;;;;6178228;23;20627;-82
2022/01/12 12:16:47;;;;;;;25.90;6.17;;;7.40;99.90;;;;;;6177609;23;20613;-80
2022/01/12 12:19:14;;;;;;;19.40;5.43;;;7.50;99.90;;;;;;6176107;23;20183;-81
2022/01/12 12:21:47;;;;;;;19.30;7.30;;;7.50;99.90;;;;;;6176225;23;20174;-84
2022/01/12 12:24:16;;;;;;;23.70;9.53;;;7.50;99.90;;;;;;6176363;23;20181;-81
2022/01/12 12:26:54;;;;;;;30.43;9.13;;;7.50;99.90;;;;;;6177423;23;20171;-81
2022/01/12 12:29:26;;;;;;;32.97;11.87;;;7.50;99.90;;;;;;6178351;23;20198;-81
2022/01/12 12:31:54;;;;;;;26.90;9.63;;;7.60;99.90;;;;;;6177846;23;20180;-81
2022/01/12 12:34:25;;;;;;;25.67;6.27;;;7.60;99.90;;;;;;6178288;23;20181;-81
2022/01/12 12:37:00;;;;;;;24.63;5.90;;;7.70;99.90;;;;;;6178050;23;20204;-81
2022/01/12 12:39:32;;;;;;;22.17;4.43;;;7.70;99.90;;;;;;6177883;23;20170;-81
2022/01/12 12:41:59;;;;;;;15.10;3.40;;;7.70;99.90;;;;;;6177648;23;20964;-80
2022/01/12 12:44:30;;;;;;;22.07;3.80;;;7.80;99.90;;;;;;6176588;23;20171;-82
2022/01/12 12:47:09;;;;;;;18.67;4.53;;;7.80;99.90;;;;;;6177813;23;20166;-82
2022/01/12 12:49:50;;;;;;;12.00;3.30;;;7.90;99.90;;;;;;6175533;23;20709;-81
2022/01/12 12:52:25;;;;;;;18.40;4.63;;;7.90;99.90;;;;;;6176826;23;20166;-81
2022/01/12 12:54:53;;;;;;;21.10;4.13;;;7.90;99.90;;;;;;6176513;23;20178;-83
2022/01/12 12:57:21;;;;;;;17.83;3.90;;;7.90;99.90;;;;;;6177411;23;20249;-84
2022/01/12 12:59:51;;;;;;;17.43;4.07;;;8.00;99.90;;;;;;6176257;23;20178;-80
2022/01/12 13:02:19;;;;;;;15.57;3.60;;;8.00;99.90;;;;;;6176966;23;20182;-82
2022/01/12 13:04:46;;;;;;;16.77;3.97;;;8.00;99.90;;;;;;6174892;23;20175;-81
2022/01/12 13:07:19;;;;;;;20.93;5.50;;;8.00;99.90;;;;;;6178684;23;20166;-83
2022/01/12 13:09:45;;;;;;;16.40;4.50;;;7.90;99.90;;;;;;6180473;23;20253;-84
2022/01/12 13:12:13;;;;;;;17.07;4.37;;;7.90;99.90;;;;;;6181083;23;20284;-85
2022/01/12 13:14:45;;;;;;;16.53;4.13;;;7.90;99.90;;;;;;6180184;23;20190;-85
2022/01/12 13:17:14;;;;;;;18.30;4.23;;;7.90;99.90;;;;;;6179557;23;20198;-85
2022/01/12 13:22:27;;;;;;;15.67;3.97;;;7.80;99.90;;;;;;6180169;23;20170;-85
2022/01/12 13:24:54;;;;;;;19.70;7.50;;;7.80;99.90;;;;;;6179755;23;20171;-86
2022/01/12 13:27:23;;;;;;;24.60;8.23;;;7.70;99.90;;;;;;6179688;23;20181;-82
2022/01/12 13:29:52;;;;;;;22.00;7.90;;;7.70;99.90;;;;;;6180516;23;20187;-84
2022/01/12 13:32:21;;;;;;;19.30;8.33;;;7.70;99.90;;;;;;6179449;23;20190;-83
2022/01/12 13:34:58;;;;;;;19.13;7.73;;;7.70;99.90;;;;;;6177077;23;20170;-81
2022/01/12 13:37:25;;;;;;;25.57;8.97;;;7.70;99.90;;;;;;6174984;23;20213;-81
2022/01/12 13:40:07;;;;;;;17.80;8.53;;;7.70;99.90;;;;;;6177333;23;20593;-81
2022/01/12 13:42:46;;;;;;;27.27;7.77;;;7.60;99.90;;;;;;6177696;23;20171;-84
2022/01/12 13:45:16;;;;;;;22.37;8.27;;;7.60;99.90;;;;;;6178169;23;20155;-85
2022/01/12 13:47:49;;;;;;;17.33;8.77;;;7.60;99.90;;;;;;6177953;23;20297;-85
2022/01/12 13:50:17;;;;;;;17.80;7.33;;;7.60;99.90;;;;;;6176161;23;20194;-81
2022/01/12 13:52:54;;;;;;;20.83;9.20;;;7.60;99.90;;;;;;6175700;23;20170;-82
2022/01/12 13:55:21;;;;;;;15.17;7.47;;;7.60;99.90;;;;;;6176663;23;20819;-82
2022/01/12 13:57:57;;;;;;;23.80;7.53;;;7.50;99.90;;;;;;6176431;23;20202;-84
2022/01/12 14:00:24;;;;;;;25.50;7.07;;;7.60;99.90;;;;;;6177383;23;20166;-84
2022/01/12 14:02:52;;;;;;;15.33;6.17;;;7.60;99.90;;;;;;6176914;23;20209;-83
2022/01/12 14:05:20;;;;;;;23.17;5.67;;;7.50;99.90;;;;;;6175452;23;20198;-82